sensor_id;sensor_type;location;lat;lon;timestamp;P1;durP1;ratioP1;P2;durP2;ratioP2
65315;SDS011;51920;53.952;10.292;2023-02-01T00:01:53;16.95;;;3.00;;
65315;SDS011;51920;53.952;10.292;2023-02-01T00:04:19;17.17;;;3.00;;
65315;SDS011;51920;53.952;10.292;2023-02-01T00:06:45;15.80;;;2.75;;
65315;SDS011;51920;53.952;10.292;2023-02-01T00:09:12;17.07;;;3.23;;
65315;SDS011;51920;53.952;10.292;2023-02-01T00:11:38;12.30;;;2.90;;
65315;SDS011;51920;53.952;10.292;2023-02-01T00:14:04;12.73;;;2.63;;
65315;SDS011;51920;53.952;10.292;2023-02-01T00:16:29;17.80;;;3.15;;
65315;SDS011;51920;53.952;10.292;2023-02-01T00:18:57;16.05;;;2.70;;
65315;SDS011;51920;53.952;10.292;2023-02-01T00:21:25;18.38;;;3.25;;
65315;SDS011;51920;53.952;10.292;2023-02-01T00:23:51;16.80;;;2.70;;
65315;SDS011;51920;53.952;10.292;2023-02-01T00:26:18;12.97;;;3.07;;
65315;SDS011;51920;53.952;10.292;2023-02-01T00:28:45;17.15;;;2.88;;
65315;SDS011;51920;53.952;10.292;2023-02-01T00:31:11;22.63;;;3.30;;
65315;SDS011;51920;53.952;10.292;2023-02-01T00:33:37;18.30;;;3.22;;
65315;SDS011;51920;53.952;10.292;2023-02-01T00:36:03;19.80;;;2.97;;
65315;SDS011;51920;53.952;10.292;2023-02-01T00:38:31;20.85;;;3.28;;
65315;SDS011;51920;53.952;10.292;2023-02-01T00:41:02;17.90;;;3.10;;
65315;SDS011;51920;53.952;10.292;2023-02-01T00:43:30;21.73;;;3.27;;
65315;SDS011;51920;53.952;10.292;2023-02-01T00:45:56;15.80;;;2.80;;
65315;SDS011;51920;53.952;10.292;2023-02-01T00:48:21;22.33;;;3.27;;
65315;SDS011;51920;53.952;10.292;2023-02-01T00:50:47;12.55;;;2.60;;
65315;SDS011;51920;53.952;10.292;2023-02-01T00:53:12;22.83;;;3.63;;
65315;SDS011;51920;53.952;10.292;2023-02-01T00:55:39;16.55;;;3.20;;
65315;SDS011;51920;53.952;10.292;2023-02-01T00:58:04;21.13;;;3.00;;
65315;SDS011;51920;53.952;10.292;2023-02-01T01:00:31;16.77;;;2.80;;
65315;SDS011;51920;53.952;10.292;2023-02-01T01:02:57;18.30;;;3.38;;
65315;SDS011;51920;53.952;10.292;2023-02-01T01:05:23;16.57;;;2.90;;
65315;SDS011;51920;53.952;10.292;2023-02-01T01:07:49;17.85;;;2.88;;
65315;SDS011;51920;53.952;10.292;2023-02-01T01:10:14;18.43;;;2.90;;
65315;SDS011;51920;53.952;10.292;2023-02-01T01:12:40;19.63;;;3.20;;
65315;SDS011;51920;53.952;10.292;2023-02-01T01:15:06;18.07;;;3.10;;
65315;SDS011;51920;53.952;10.292;2023-02-01T01:17:32;14.65;;;2.95;;
65315;SDS011;51920;53.952;10.292;2023-02-01T01:19:57;11.73;;;3.07;;
65315;SDS011;51920;53.952;10.292;2023-02-01T01:22:23;18.80;;;3.47;;
65315;SDS011;51920;53.952;10.292;2023-02-01T01:24:48;17.92;;;3.00;;
65315;SDS011;51920;53.952;10.292;2023-02-01T01:27:14;19.60;;;3.00;;
65315;SDS011;51920;53.952;10.292;2023-02-01T01:29:40;22.58;;;3.10;;
65315;SDS011;51920;53.952;10.292;2023-02-01T01:32:05;16.37;;;3.20;;
65315;SDS011;51920;53.952;10.292;2023-02-01T01:34:31;16.20;;;2.90;;
65315;SDS011;51920;53.952;10.292;2023-02-01T01:36:56;14.60;;;2.72;;
65315;SDS011;51920;53.952;10.292;2023-02-01T01:39:21;19.63;;;3.50;;
65315;SDS011;51920;53.952;10.292;2023-02-01T01:41:47;23.97;;;3.43;;
65315;SDS011;51920;53.952;10.292;2023-02-01T01:47:20;13.32;;;2.53;;
65315;SDS011;51920;53.952;10.292;2023-02-01T01:49:46;15.50;;;2.50;;
65315;SDS011;51920;53.952;10.292;2023-02-01T01:52:11;17.92;;;3.03;;
65315;SDS011;51920;53.952;10.292;2023-02-01T01:54:38;11.88;;;3.00;;
65315;SDS011;51920;53.952;10.292;2023-02-01T01:57:15;19.67;;;2.80;;
65315;SDS011;51920;53.952;10.292;2023-02-01T01:59:46;18.95;;;3.03;;
65315;SDS011;51920;53.952;10.292;2023-02-01T02:02:15;15.43;;;2.83;;
65315;SDS011;51920;53.952;10.292;2023-02-01T02:04:41;13.63;;;2.53;;
65315;SDS011;51920;53.952;10.292;2023-02-01T02:07:11;15.53;;;3.00;;
65315;SDS011;51920;53.952;10.292;2023-02-01T02:09:41;17.55;;;3.10;;
65315;SDS011;51920;53.952;10.292;2023-02-01T02:12:08;15.02;;;2.78;;
65315;SDS011;51920;53.952;10.292;2023-02-01T02:14:34;23.50;;;3.22;;
65315;SDS011;51920;53.952;10.292;2023-02-01T02:28:47;20.40;;;2.90;;
65315;SDS011;51920;53.952;10.292;2023-02-01T02:31:33;21.17;;;3.35;;
65315;SDS011;51920;53.952;10.292;2023-02-01T02:45:28;17.65;;;3.60;;
65315;SDS011;51920;53.952;10.292;2023-02-01T02:51:01;19.25;;;3.20;;
65315;SDS011;51920;53.952;10.292;2023-02-01T02:53:53;22.55;;;3.88;;
65315;SDS011;51920;53.952;10.292;2023-02-01T02:56:44;24.00;;;3.80;;
65315;SDS011;51920;53.952;10.292;2023-02-01T02:59:28;19.58;;;3.30;;
65315;SDS011;51920;53.952;10.292;2023-02-01T03:02:13;19.53;;;3.00;;
65315;SDS011;51920;53.952;10.292;2023-02-01T03:04:59;20.92;;;3.25;;
65315;SDS011;51920;53.952;10.292;2023-02-01T03:10:11;20.10;;;3.35;;
65315;SDS011;51920;53.952;10.292;2023-02-01T03:12:50;23.83;;;3.35;;
65315;SDS011;51920;53.952;10.292;2023-02-01T03:15:27;16.10;;;2.83;;
65315;SDS011;51920;53.952;10.292;2023-02-01T03:18:00;22.70;;;3.28;;
65315;SDS011;51920;53.952;10.292;2023-02-01T03:20:28;16.95;;;3.20;;
65315;SDS011;51920;53.952;10.292;2023-02-01T03:22:56;16.35;;;3.22;;
65315;SDS011;51920;53.952;10.292;2023-02-01T03:25:29;16.15;;;3.35;;
65315;SDS011;51920;53.952;10.292;2023-02-01T03:27:59;14.10;;;2.50;;
65315;SDS011;51920;53.952;10.292;2023-02-01T03:30:42;10.15;;;2.35;;
65315;SDS011;51920;53.952;10.292;2023-02-01T03:33:16;14.13;;;2.70;;
65315;SDS011;51920;53.952;10.292;2023-02-01T03:35:50;14.40;;;2.58;;
65315;SDS011;51920;53.952;10.292;2023-02-01T03:38:24;6.32;;;2.10;;
65315;SDS011;51920;53.952;10.292;2023-02-01T03:41:08;9.20;;;2.03;;
65315;SDS011;51920;53.952;10.292;2023-02-01T03:43:43;9.80;;;2.10;;
65315;SDS011;51920;53.952;10.292;2023-02-01T03:46:18;10.20;;;2.55;;
65315;SDS011;51920;53.952;10.292;2023-02-01T03:48:49;12.95;;;2.42;;
65315;SDS011;51920;53.952;10.292;2023-02-01T03:51:16;11.98;;;3.20;;
65315;SDS011;51920;53.952;10.292;2023-02-01T03:53:44;17.43;;;2.70;;
65315;SDS011;51920;53.952;10.292;2023-02-01T03:56:13;13.07;;;2.60;;
65315;SDS011;51920;53.952;10.292;2023-02-01T03:58:40;17.48;;;2.70;;
65315;SDS011;51920;53.952;10.292;2023-02-01T04:01:06;23.97;;;3.03;;
65315;SDS011;51920;53.952;10.292;2023-02-01T04:03:35;13.60;;;2.90;;
65315;SDS011;51920;53.952;10.292;2023-02-01T04:06:01;11.83;;;2.40;;
65315;SDS011;51920;53.952;10.292;2023-02-01T04:08:28;10.50;;;2.15;;
65315;SDS011;51920;53.952;10.292;2023-02-01T04:10:53;8.40;;;1.73;;
65315;SDS011;51920;53.952;10.292;2023-02-01T04:13:19;6.20;;;1.75;;
65315;SDS011;51920;53.952;10.292;2023-02-01T04:15:44;7.43;;;1.87;;
65315;SDS011;51920;53.952;10.292;2023-02-01T04:18:14;6.47;;;1.77;;
65315;SDS011;51920;53.952;10.292;2023-02-01T04:20:40;4.70;;;1.63;;
65315;SDS011;51920;53.952;10.292;2023-02-01T04:23:05;12.77;;;1.73;;
65315;SDS011;51920;53.952;10.292;2023-02-01T04:25:31;8.00;;;1.67;;
65315;SDS011;51920;53.952;10.292;2023-02-01T04:27:56;8.63;;;2.13;;
65315;SDS011;51920;53.952;10.292;2023-02-01T04:30:22;6.07;;;1.80;;
65315;SDS011;51920;53.952;10.292;2023-02-01T04:32:49;4.88;;;1.65;;
65315;SDS011;51920;53.952;10.292;2023-02-01T04:35:14;4.50;;;1.80;;
65315;SDS011;51920;53.952;10.292;2023-02-01T04:37:40;6.20;;;2.10;;
65315;SDS011;51920;53.952;10.292;2023-02-01T04:40:05;4.53;;;1.70;;
65315;SDS011;51920;53.952;10.292;2023-02-01T04:42:31;6.57;;;1.70;;
65315;SDS011;51920;53.952;10.292;2023-02-01T04:44:56;5.72;;;1.60;;
65315;SDS011;51920;53.952;10.292;2023-02-01T04:47:22;6.10;;;1.53;;
65315;SDS011;51920;53.952;10.292;2023-02-01T04:49:47;5.57;;;1.70;;
65315;SDS011;51920;53.952;10.292;2023-02-01T04:52:13;9.03;;;1.93;;
65315;SDS011;51920;53.952;10.292;2023-02-01T04:54:38;7.70;;;1.80;;
65315;SDS011;51920;53.952;10.292;2023-02-01T04:57:03;9.07;;;1.67;;
65315;SDS011;51920;53.952;10.292;2023-02-01T04:59:29;6.33;;;1.57;;
65315;SDS011;51920;53.952;10.292;2023-02-01T05:01:54;9.03;;;1.97;;
65315;SDS011;51920;53.952;10.292;2023-02-01T05:04:20;6.37;;;1.80;;
65315;SDS011;51920;53.952;10.292;2023-02-01T05:06:45;11.10;;;2.70;;
65315;SDS011;51920;53.952;10.292;2023-02-01T05:09:11;8.73;;;2.00;;
65315;SDS011;51920;53.952;10.292;2023-02-01T05:11:36;8.77;;;2.47;;
65315;SDS011;51920;53.952;10.292;2023-02-01T05:14:21;10.10;;;2.53;;
65315;SDS011;51920;53.952;10.292;2023-02-01T05:16:46;11.93;;;2.40;;
65315;SDS011;51920;53.952;10.292;2023-02-01T05:19:12;12.80;;;2.70;;
65315;SDS011;51920;53.952;10.292;2023-02-01T05:21:37;10.95;;;2.38;;
65315;SDS011;51920;53.952;10.292;2023-02-01T05:24:03;14.80;;;3.00;;
65315;SDS011;51920;53.952;10.292;2023-02-01T05:26:35;12.10;;;2.00;;
65315;SDS011;51920;53.952;10.292;2023-02-01T05:29:01;5.95;;;2.00;;
65315;SDS011;51920;53.952;10.292;2023-02-01T05:31:27;11.13;;;1.90;;
65315;SDS011;51920;53.952;10.292;2023-02-01T05:33:52;6.90;;;1.80;;
65315;SDS011;51920;53.952;10.292;2023-02-01T05:36:18;6.20;;;1.90;;
65315;SDS011;51920;53.952;10.292;2023-02-01T05:38:43;4.53;;;1.70;;
65315;SDS011;51920;53.952;10.292;2023-02-01T05:41:09;6.47;;;1.73;;
65315;SDS011;51920;53.952;10.292;2023-02-01T05:43:34;7.47;;;1.80;;
65315;SDS011;51920;53.952;10.292;2023-02-01T05:46:00;6.57;;;2.20;;
65315;SDS011;51920;53.952;10.292;2023-02-01T05:48:25;5.97;;;2.30;;
65315;SDS011;51920;53.952;10.292;2023-02-01T05:50:51;6.13;;;1.60;;
65315;SDS011;51920;53.952;10.292;2023-02-01T05:53:17;7.83;;;2.10;;
65315;SDS011;51920;53.952;10.292;2023-02-01T05:55:42;8.68;;;1.70;;
65315;SDS011;51920;53.952;10.292;2023-02-01T05:58:08;7.80;;;1.70;;
65315;SDS011;51920;53.952;10.292;2023-02-01T06:00:33;6.22;;;1.48;;
65315;SDS011;51920;53.952;10.292;2023-02-01T06:02:59;5.93;;;1.80;;
65315;SDS011;51920;53.952;10.292;2023-02-01T06:05:24;8.73;;;2.30;;
65315;SDS011;51920;53.952;10.292;2023-02-01T06:07:50;6.63;;;2.00;;
65315;SDS011;51920;53.952;10.292;2023-02-01T06:10:16;4.78;;;1.98;;
65315;SDS011;51920;53.952;10.292;2023-02-01T06:12:43;7.70;;;1.67;;
65315;SDS011;51920;53.952;10.292;2023-02-01T06:15:10;5.97;;;2.10;;
65315;SDS011;51920;53.952;10.292;2023-02-01T06:17:40;6.82;;;2.10;;
65315;SDS011;51920;53.952;10.292;2023-02-01T06:20:07;5.95;;;1.90;;
65315;SDS011;51920;53.952;10.292;2023-02-01T06:22:34;5.38;;;2.03;;
65315;SDS011;51920;53.952;10.292;2023-02-01T06:25:01;4.73;;;1.80;;
65315;SDS011;51920;53.952;10.292;2023-02-01T06:27:27;6.28;;;2.00;;
65315;SDS011;51920;53.952;10.292;2023-02-01T06:29:53;5.20;;;2.20;;
65315;SDS011;51920;53.952;10.292;2023-02-01T06:32:20;5.85;;;1.60;;
65315;SDS011;51920;53.952;10.292;2023-02-01T06:34:46;5.10;;;2.30;;
65315;SDS011;51920;53.952;10.292;2023-02-01T06:37:11;7.88;;;1.92;;
65315;SDS011;51920;53.952;10.292;2023-02-01T06:39:36;6.70;;;1.80;;
65315;SDS011;51920;53.952;10.292;2023-02-01T06:42:02;3.83;;;2.30;;
65315;SDS011;51920;53.952;10.292;2023-02-01T06:44:28;5.47;;;2.20;;
65315;SDS011;51920;53.952;10.292;2023-02-01T06:46:53;10.70;;;1.97;;
65315;SDS011;51920;53.952;10.292;2023-02-01T06:49:20;6.72;;;2.40;;
65315;SDS011;51920;53.952;10.292;2023-02-01T06:51:45;9.73;;;2.40;;
65315;SDS011;51920;53.952;10.292;2023-02-01T06:54:11;11.47;;;2.20;;
65315;SDS011;51920;53.952;10.292;2023-02-01T06:56:36;6.70;;;2.40;;
65315;SDS011;51920;53.952;10.292;2023-02-01T06:59:05;8.60;;;2.17;;
65315;SDS011;51920;53.952;10.292;2023-02-01T07:01:31;9.82;;;2.78;;
65315;SDS011;51920;53.952;10.292;2023-02-01T07:03:57;10.60;;;2.70;;
65315;SDS011;51920;53.952;10.292;2023-02-01T07:06:22;11.73;;;2.20;;
65315;SDS011;51920;53.952;10.292;2023-02-01T07:08:48;9.43;;;2.37;;
65315;SDS011;51920;53.952;10.292;2023-02-01T07:11:14;7.75;;;2.00;;
65315;SDS011;51920;53.952;10.292;2023-02-01T07:13:41;9.45;;;2.58;;
65315;SDS011;51920;53.952;10.292;2023-02-01T07:16:09;8.80;;;2.53;;
65315;SDS011;51920;53.952;10.292;2023-02-01T07:18:37;11.93;;;2.83;;
65315;SDS011;51920;53.952;10.292;2023-02-01T07:21:02;8.27;;;2.57;;
65315;SDS011;51920;53.952;10.292;2023-02-01T07:23:28;11.17;;;3.20;;
65315;SDS011;51920;53.952;10.292;2023-02-01T07:25:54;12.97;;;2.83;;
65315;SDS011;51920;53.952;10.292;2023-02-01T07:28:20;9.80;;;2.40;;
65315;SDS011;51920;53.952;10.292;2023-02-01T07:30:46;13.27;;;2.53;;
65315;SDS011;51920;53.952;10.292;2023-02-01T07:33:25;11.48;;;2.33;;
65315;SDS011;51920;53.952;10.292;2023-02-01T07:35:51;15.90;;;2.75;;
65315;SDS011;51920;53.952;10.292;2023-02-01T07:38:17;11.83;;;2.73;;
65315;SDS011;51920;53.952;10.292;2023-02-01T07:40:43;17.80;;;5.18;;
65315;SDS011;51920;53.952;10.292;2023-02-01T07:43:08;13.93;;;2.93;;
65315;SDS011;51920;53.952;10.292;2023-02-01T07:45:34;12.13;;;2.70;;
65315;SDS011;51920;53.952;10.292;2023-02-01T07:48:01;12.05;;;2.47;;
65315;SDS011;51920;53.952;10.292;2023-02-01T07:50:27;11.43;;;3.03;;
65315;SDS011;51920;53.952;10.292;2023-02-01T07:52:53;14.57;;;3.10;;
65315;SDS011;51920;53.952;10.292;2023-02-01T07:55:19;15.37;;;2.63;;
65315;SDS011;51920;53.952;10.292;2023-02-01T07:57:45;18.65;;;3.30;;
65315;SDS011;51920;53.952;10.292;2023-02-01T08:00:11;17.30;;;3.17;;
65315;SDS011;51920;53.952;10.292;2023-02-01T08:02:59;16.17;;;3.33;;
65315;SDS011;51920;53.952;10.292;2023-02-01T08:05:25;24.00;;;3.20;;
65315;SDS011;51920;53.952;10.292;2023-02-01T08:07:50;15.30;;;2.83;;
65315;SDS011;51920;53.952;10.292;2023-02-01T08:10:16;18.42;;;3.55;;
65315;SDS011;51920;53.952;10.292;2023-02-01T08:12:43;19.23;;;3.10;;
65315;SDS011;51920;53.952;10.292;2023-02-01T08:15:12;15.02;;;3.53;;
65315;SDS011;51920;53.952;10.292;2023-02-01T08:17:47;14.88;;;3.53;;
65315;SDS011;51920;53.952;10.292;2023-02-01T08:20:14;15.52;;;3.28;;
65315;SDS011;51920;53.952;10.292;2023-02-01T08:22:39;16.33;;;2.97;;
65315;SDS011;51920;53.952;10.292;2023-02-01T08:25:05;16.90;;;3.20;;
65315;SDS011;51920;53.952;10.292;2023-02-01T08:27:34;15.60;;;2.75;;
65315;SDS011;51920;53.952;10.292;2023-02-01T08:29:59;12.73;;;2.75;;
65315;SDS011;51920;53.952;10.292;2023-02-01T08:32:25;15.07;;;2.77;;
65315;SDS011;51920;53.952;10.292;2023-02-01T08:34:51;17.05;;;3.13;;
65315;SDS011;51920;53.952;10.292;2023-02-01T08:37:17;18.00;;;2.83;;
65315;SDS011;51920;53.952;10.292;2023-02-01T08:39:42;20.50;;;3.33;;
65315;SDS011;51920;53.952;10.292;2023-02-01T08:42:12;15.73;;;3.23;;
65315;SDS011;51920;53.952;10.292;2023-02-01T08:44:56;22.27;;;3.60;;
65315;SDS011;51920;53.952;10.292;2023-02-01T08:47:22;20.10;;;3.90;;
65315;SDS011;51920;53.952;10.292;2023-02-01T08:49:47;12.57;;;2.90;;
65315;SDS011;51920;53.952;10.292;2023-02-01T08:52:13;15.57;;;2.97;;
65315;SDS011;51920;53.952;10.292;2023-02-01T08:54:38;20.83;;;3.40;;
65315;SDS011;51920;53.952;10.292;2023-02-01T08:57:06;15.30;;;2.90;;
65315;SDS011;51920;53.952;10.292;2023-02-01T08:59:31;16.93;;;2.43;;
65315;SDS011;51920;53.952;10.292;2023-02-01T09:01:57;17.92;;;3.00;;
65315;SDS011;51920;53.952;10.292;2023-02-01T09:04:22;17.03;;;2.70;;
65315;SDS011;51920;53.952;10.292;2023-02-01T09:06:48;11.80;;;2.47;;
65315;SDS011;51920;53.952;10.292;2023-02-01T09:09:13;11.93;;;2.60;;
65315;SDS011;51920;53.952;10.292;2023-02-01T09:11:38;10.18;;;2.63;;
65315;SDS011;51920;53.952;10.292;2023-02-01T09:14:04;17.50;;;3.00;;
65315;SDS011;51920;53.952;10.292;2023-02-01T09:16:29;10.27;;;2.70;;
65315;SDS011;51920;53.952;10.292;2023-02-01T09:18:55;11.43;;;2.50;;
65315;SDS011;51920;53.952;10.292;2023-02-01T09:21:20;11.45;;;2.60;;
65315;SDS011;51920;53.952;10.292;2023-02-01T09:23:46;11.20;;;2.40;;
65315;SDS011;51920;53.952;10.292;2023-02-01T09:26:13;12.90;;;2.78;;
65315;SDS011;51920;53.952;10.292;2023-02-01T09:28:39;14.57;;;3.83;;
65315;SDS011;51920;53.952;10.292;2023-02-01T09:31:05;13.68;;;2.50;;
65315;SDS011;51920;53.952;10.292;2023-02-01T09:33:30;11.17;;;2.13;;
65315;SDS011;51920;53.952;10.292;2023-02-01T09:36:00;15.15;;;2.60;;
65315;SDS011;51920;53.952;10.292;2023-02-01T09:38:28;12.10;;;1.98;;
65315;SDS011;51920;53.952;10.292;2023-02-01T09:40:55;9.37;;;1.87;;
65315;SDS011;51920;53.952;10.292;2023-02-01T09:43:27;10.35;;;2.10;;
65315;SDS011;51920;53.952;10.292;2023-02-01T09:48:44;12.05;;;2.35;;
65315;SDS011;51920;53.952;10.292;2023-02-01T09:51:16;18.20;;;2.20;;
65315;SDS011;51920;53.952;10.292;2023-02-01T09:53:47;13.77;;;2.63;;
65315;SDS011;51920;53.952;10.292;2023-02-01T09:56:24;10.70;;;2.10;;
65315;SDS011;51920;53.952;10.292;2023-02-01T10:01:38;10.18;;;2.30;;
65315;SDS011;51920;53.952;10.292;2023-02-01T10:04:05;10.23;;;2.40;;
65315;SDS011;51920;53.952;10.292;2023-02-01T10:22:29;13.45;;;2.10;;
65315;SDS011;51920;53.952;10.292;2023-02-01T10:25:04;15.00;;;3.10;;
65315;SDS011;51920;53.952;10.292;2023-02-01T10:27:34;16.53;;;2.47;;
65315;SDS011;51920;53.952;10.292;2023-02-01T10:30:09;11.40;;;2.40;;
65315;SDS011;51920;53.952;10.292;2023-02-01T10:32:45;17.23;;;2.90;;
65315;SDS011;51920;53.952;10.292;2023-02-01T10:35:16;22.10;;;3.05;;
65315;SDS011;51920;53.952;10.292;2023-02-01T10:37:44;17.98;;;2.65;;
65315;SDS011;51920;53.952;10.292;2023-02-01T10:42:42;15.82;;;2.78;;
65315;SDS011;51920;53.952;10.292;2023-02-01T10:45:15;14.57;;;3.35;;
65315;SDS011;51920;53.952;10.292;2023-02-01T10:47:43;16.30;;;2.83;;
65315;SDS011;51920;53.952;10.292;2023-02-01T10:50:15;16.75;;;2.90;;
65315;SDS011;51920;53.952;10.292;2023-02-01T10:55:33;15.57;;;2.92;;
65315;SDS011;51920;53.952;10.292;2023-02-01T10:58:04;18.25;;;2.78;;
65315;SDS011;51920;53.952;10.292;2023-02-01T11:00:41;16.25;;;2.85;;
65315;SDS011;51920;53.952;10.292;2023-02-01T11:06:11;15.57;;;2.77;;
65315;SDS011;51920;53.952;10.292;2023-02-01T11:08:42;14.63;;;2.85;;
65315;SDS011;51920;53.952;10.292;2023-02-01T11:11:13;13.25;;;2.70;;
65315;SDS011;51920;53.952;10.292;2023-02-01T11:13:39;15.80;;;2.97;;
65315;SDS011;51920;53.952;10.292;2023-02-01T11:16:05;12.13;;;2.83;;
65315;SDS011;51920;53.952;10.292;2023-02-01T11:18:35;12.95;;;2.30;;
65315;SDS011;51920;53.952;10.292;2023-02-01T11:21:02;10.52;;;2.30;;
65315;SDS011;51920;53.952;10.292;2023-02-01T11:23:29;10.80;;;2.03;;
65315;SDS011;51920;53.952;10.292;2023-02-01T11:25:59;10.18;;;2.03;;
65315;SDS011;51920;53.952;10.292;2023-02-01T11:28:30;10.60;;;2.70;;
65315;SDS011;51920;53.952;10.292;2023-02-01T11:31:02;12.15;;;2.63;;
65315;SDS011;51920;53.952;10.292;2023-02-01T11:33:30;12.15;;;2.40;;
65315;SDS011;51920;53.952;10.292;2023-02-01T11:36:33;10.17;;;2.13;;
65315;SDS011;51920;53.952;10.292;2023-02-01T11:44:43;10.63;;;3.00;;
65315;SDS011;51920;53.952;10.292;2023-02-01T11:49:44;16.97;;;2.70;;
65315;SDS011;51920;53.952;10.292;2023-02-01T11:55:16;13.95;;;3.30;;
65315;SDS011;51920;53.952;10.292;2023-02-01T11:57:57;11.52;;;2.90;;
65315;SDS011;51920;53.952;10.292;2023-02-01T12:03:26;19.53;;;3.23;;
65315;SDS011;51920;53.952;10.292;2023-02-01T12:11:43;17.42;;;2.83;;
65315;SDS011;51920;53.952;10.292;2023-02-01T12:25:39;12.50;;;2.90;;
65315;SDS011;51920;53.952;10.292;2023-02-01T12:29:05;13.73;;;3.47;;
65315;SDS011;51920;53.952;10.292;2023-02-01T12:31:46;10.17;;;2.30;;
65315;SDS011;51920;53.952;10.292;2023-02-01T12:42:30;7.47;;;2.63;;
65315;SDS011;51920;53.952;10.292;2023-02-01T12:47:47;6.45;;;2.60;;
65315;SDS011;51920;53.952;10.292;2023-02-01T12:50:25;8.65;;;2.33;;
65315;SDS011;51920;53.952;10.292;2023-02-01T12:53:02;11.73;;;2.78;;
65315;SDS011;51920;53.952;10.292;2023-02-01T12:55:36;7.28;;;2.28;;
65315;SDS011;51920;53.952;10.292;2023-02-01T12:58:11;10.33;;;3.37;;
65315;SDS011;51920;53.952;10.292;2023-02-01T13:01:41;11.90;;;3.05;;
65315;SDS011;51920;53.952;10.292;2023-02-01T13:06:43;9.65;;;2.40;;
65315;SDS011;51920;53.952;10.292;2023-02-01T13:11:50;10.23;;;2.20;;
65315;SDS011;51920;53.952;10.292;2023-02-01T13:16:59;8.95;;;2.70;;
65315;SDS011;51920;53.952;10.292;2023-02-01T13:19:49;4.65;;;1.50;;
65315;SDS011;51920;53.952;10.292;2023-02-01T13:22:31;3.22;;;1.80;;
65315;SDS011;51920;53.952;10.292;2023-02-01T13:25:00;2.77;;;1.50;;
65315;SDS011;51920;53.952;10.292;2023-02-01T13:27:37;1.88;;;1.55;;
65315;SDS011;51920;53.952;10.292;2023-02-01T13:43:34;4.10;;;2.00;;
65315;SDS011;51920;53.952;10.292;2023-02-01T13:46:07;4.82;;;1.75;;
65315;SDS011;51920;53.952;10.292;2023-02-01T13:51:40;4.05;;;2.20;;
65315;SDS011;51920;53.952;10.292;2023-02-01T13:57:13;3.25;;;1.73;;
65315;SDS011;51920;53.952;10.292;2023-02-01T14:00:45;5.55;;;2.30;;
65315;SDS011;51920;53.952;10.292;2023-02-01T14:13:22;4.63;;;1.83;;
65315;SDS011;51920;53.952;10.292;2023-02-01T14:16:10;6.22;;;2.15;;
65315;SDS011;51920;53.952;10.292;2023-02-01T14:23:43;8.60;;;2.38;;
65315;SDS011;51920;53.952;10.292;2023-02-01T14:26:13;6.27;;;2.30;;
65315;SDS011;51920;53.952;10.292;2023-02-01T14:28:45;7.10;;;2.15;;
65315;SDS011;51920;53.952;10.292;2023-02-01T14:31:26;9.55;;;2.05;;
65315;SDS011;51920;53.952;10.292;2023-02-01T14:34:00;9.40;;;2.15;;
65315;SDS011;51920;53.952;10.292;2023-02-01T14:36:41;7.10;;;2.38;;
65315;SDS011;51920;53.952;10.292;2023-02-01T14:39:21;8.77;;;1.80;;
65315;SDS011;51920;53.952;10.292;2023-02-01T14:42:49;9.02;;;1.95;;
65315;SDS011;51920;53.952;10.292;2023-02-01T14:47:47;9.88;;;2.42;;
65315;SDS011;51920;53.952;10.292;2023-02-01T14:53:05;9.37;;;2.27;;
65315;SDS011;51920;53.952;10.292;2023-02-01T15:00:57;6.70;;;2.50;;
65315;SDS011;51920;53.952;10.292;2023-02-01T15:08:52;8.80;;;3.28;;
65315;SDS011;51920;53.952;10.292;2023-02-01T15:11:30;13.90;;;4.10;;
65315;SDS011;51920;53.952;10.292;2023-02-01T15:14:16;11.90;;;3.60;;
65315;SDS011;51920;53.952;10.292;2023-02-01T15:16:42;12.87;;;3.60;;
65315;SDS011;51920;53.952;10.292;2023-02-01T15:19:18;15.48;;;3.42;;
65315;SDS011;51920;53.952;10.292;2023-02-01T15:21:49;17.95;;;4.35;;
65315;SDS011;51920;53.952;10.292;2023-02-01T15:24:21;11.57;;;3.72;;
65315;SDS011;51920;53.952;10.292;2023-02-01T15:26:48;9.55;;;3.63;;
65315;SDS011;51920;53.952;10.292;2023-02-01T15:29:15;16.07;;;3.50;;
65315;SDS011;51920;53.952;10.292;2023-02-01T15:31:43;18.52;;;3.05;;
65315;SDS011;51920;53.952;10.292;2023-02-01T15:34:10;15.98;;;3.45;;
65315;SDS011;51920;53.952;10.292;2023-02-01T15:36:36;14.70;;;2.95;;
65315;SDS011;51920;53.952;10.292;2023-02-01T15:39:17;21.40;;;4.35;;
65315;SDS011;51920;53.952;10.292;2023-02-01T15:42:30;18.13;;;3.30;;
65315;SDS011;51920;53.952;10.292;2023-02-01T15:44:41;15.05;;;3.03;;
65315;SDS011;51920;53.952;10.292;2023-02-01T15:49:44;11.02;;;2.90;;
65315;SDS011;51920;53.952;10.292;2023-02-01T15:54:55;18.83;;;3.53;;
65315;SDS011;51920;53.952;10.292;2023-02-01T15:57:27;17.25;;;3.10;;
65315;SDS011;51920;53.952;10.292;2023-02-01T15:59:57;21.20;;;3.60;;
65315;SDS011;51920;53.952;10.292;2023-02-01T16:02:26;14.55;;;2.65;;
65315;SDS011;51920;53.952;10.292;2023-02-01T16:04:53;23.38;;;3.47;;
65315;SDS011;51920;53.952;10.292;2023-02-01T16:07:25;15.67;;;3.17;;
65315;SDS011;51920;53.952;10.292;2023-02-01T16:09:56;15.30;;;3.10;;
65315;SDS011;51920;53.952;10.292;2023-02-01T16:14:57;14.82;;;3.17;;
65315;SDS011;51920;53.952;10.292;2023-02-01T16:17:23;16.27;;;3.33;;
65315;SDS011;51920;53.952;10.292;2023-02-01T16:19:48;20.13;;;3.07;;
65315;SDS011;51920;53.952;10.292;2023-02-01T16:22:13;19.07;;;3.43;;
65315;SDS011;51920;53.952;10.292;2023-02-01T16:24:39;21.15;;;3.25;;
65315;SDS011;51920;53.952;10.292;2023-02-01T16:27:05;14.90;;;3.80;;
65315;SDS011;51920;53.952;10.292;2023-02-01T16:29:32;19.63;;;3.00;;
65315;SDS011;51920;53.952;10.292;2023-02-01T16:31:58;17.92;;;3.08;;
65315;SDS011;51920;53.952;10.292;2023-02-01T16:34:24;15.87;;;2.87;;
65315;SDS011;51920;53.952;10.292;2023-02-01T16:36:50;21.45;;;3.65;;
65315;SDS011;51920;53.952;10.292;2023-02-01T16:39:17;14.95;;;2.80;;
65315;SDS011;51920;53.952;10.292;2023-02-01T16:41:44;22.38;;;3.70;;
65315;SDS011;51920;53.952;10.292;2023-02-01T16:44:10;19.50;;;3.60;;
65315;SDS011;51920;53.952;10.292;2023-02-01T16:46:39;22.23;;;3.40;;
65315;SDS011;51920;53.952;10.292;2023-02-01T16:49:14;13.40;;;2.90;;
65315;SDS011;51920;53.952;10.292;2023-02-01T16:51:43;19.48;;;2.92;;
65315;SDS011;51920;53.952;10.292;2023-02-01T16:54:09;17.07;;;3.47;;
65315;SDS011;51920;53.952;10.292;2023-02-01T16:56:35;21.65;;;3.88;;
65315;SDS011;51920;53.952;10.292;2023-02-01T16:59:02;18.53;;;3.30;;
65315;SDS011;51920;53.952;10.292;2023-02-01T17:01:28;25.33;;;3.70;;
65315;SDS011;51920;53.952;10.292;2023-02-01T17:03:53;16.77;;;3.50;;
65315;SDS011;51920;53.952;10.292;2023-02-01T17:06:20;24.63;;;3.53;;
65315;SDS011;51920;53.952;10.292;2023-02-01T17:08:52;23.73;;;3.65;;
65315;SDS011;51920;53.952;10.292;2023-02-01T17:11:19;16.35;;;3.50;;
65315;SDS011;51920;53.952;10.292;2023-02-01T17:13:45;18.50;;;3.50;;
65315;SDS011;51920;53.952;10.292;2023-02-01T17:16:15;23.33;;;4.05;;
65315;SDS011;51920;53.952;10.292;2023-02-01T17:18:50;20.17;;;4.20;;
65315;SDS011;51920;53.952;10.292;2023-02-01T17:21:19;23.05;;;4.40;;
65315;SDS011;51920;53.952;10.292;2023-02-01T17:23:45;23.40;;;4.50;;
65315;SDS011;51920;53.952;10.292;2023-02-01T17:26:11;22.27;;;4.03;;
65315;SDS011;51920;53.952;10.292;2023-02-01T17:28:36;22.52;;;4.20;;
65315;SDS011;51920;53.952;10.292;2023-02-01T17:31:01;15.87;;;3.80;;